Flight Track Log - Related Links

Times and Time Zones

All times are in EST time to prevent confusion due to time zone crossing. See the AZU4315 flight status page for this flight to view local times or setup timezone preferences in your user account.

Time Position Orientation Groundspeed Altitude Reporting Facility
EST Latitude Longitude Course Direction KTS MPH feet Rate Location/Type
Tue 11:08:11 AM -20.8130 -49.4020 82° East  Level FlightAware ADS-B
Tue 11:08:59 AM -20.8290 -49.4220 229° Southwest 116 133 2,600 2,417 Climbing FlightAware ADS-B
Tue 11:09:23 AM -20.8430 -49.4250 191° South 138 159 2,900 868 Climbing FlightAware ADS-B
Tue 11:10:15 AM -20.8770 -49.4010 147° Southeast 185 213 3,700 1,010 Climbing FlightAware ADS-B
Tue 11:11:04 AM -20.9130 -49.3820 154° Southeast 190 219 4,600 889 Climbing FlightAware ADS-B
Tue 11:11:36 AM -20.9290 -49.3790 170° South 193 222 4,900 1,000 Climbing FlightAware ADS-B
Tue 11:12:10 AM -20.9710 -49.3720 171° South 197 227 5,700 1,268 Climbing FlightAware ADS-B
Tue 11:12:47 AM -21.0070 -49.3650 170° South 204 235 6,400 986 Climbing FlightAware ADS-B
Tue 11:13:23 AM -21.0420 -49.3580 169° South 208 239 6,900 882 Climbing FlightAware ADS-B
Tue 11:13:55 AM -21.0700 -49.3480 162° South 211 243 7,400 771 Climbing FlightAware ADS-B
Tue 11:14:33 AM -21.0950 -49.3140 128° Southeast 220 253 7,800 759 Climbing FlightAware ADS-B
Tue 11:15:14 AM -21.1170 -49.2830 127° Southeast 219 252 8,400 1,071 Climbing FlightAware ADS-B
Tue 11:15:29 AM -21.1300 -49.2650 128° Southeast 217 250 8,800 1,050 Climbing FlightAware ADS-B
Tue 11:15:54 AM -21.1450 -49.2450 129° Southeast 219 252 9,100 738 Climbing FlightAware ADS-B
Tue 11:16:34 AM -21.1700 -49.2090 127° Southeast 222 255 9,600 845 Climbing FlightAware ADS-B
Tue 11:17:05 AM -21.1900 -49.1810 127° Southeast 223 257 10,100 771 Climbing FlightAware ADS-B
Tue 11:17:44 AM -21.2130 -49.1500 129° Southeast 226 260 10,500 690 Climbing FlightAware ADS-B
Tue 11:18:32 AM -21.2460 -49.1040 128° Southeast 228 262 11,100 736 Climbing FlightAware ADS-B
Tue 11:19:30 AM -21.2830 -49.0520 127° Southeast 231 266 11,800 667 Climbing FlightAware ADS-B
Tue 11:20:02 AM -21.3050 -49.0220 128° Southeast 231 266 12,100 677 Climbing FlightAware ADS-B
Tue 11:20:32 AM -21.3240 -48.9950 127° Southeast 230 265 12,500 727 Climbing FlightAware ADS-B
Tue 11:21:08 AM -21.3470 -48.9620 127° Southeast 233 268 12,900 686 Climbing FlightAware ADS-B
Tue 11:21:42 AM -21.3700 -48.9300 128° Southeast 231 266 13,300 692 Climbing FlightAware ADS-B
Tue 11:22:26 AM -21.3990 -48.8910 129° Southeast 232 267 13,800 600 Climbing FlightAware ADS-B
Tue 11:23:02 AM -21.4220 -48.8580 127° Southeast 235 270 14,100 538 Climbing FlightAware ADS-B
Tue 11:23:44 AM -21.4510 -48.8180 128° Southeast 236 272 14,500 632 Climbing FlightAware ADS-B
Tue 11:24:18 AM -21.4740 -48.7860 128° Southeast 236 272 14,900 581 Climbing FlightAware ADS-B
Tue 11:24:46 AM -21.4920 -48.7610 128° Southeast 238 274 15,100 469 Climbing FlightAware ADS-B
Tue 11:25:22 AM -21.5160 -48.7260 126° Southeast 239 275 15,400 529 Climbing FlightAware ADS-B
Tue 11:25:54 AM -21.5380 -48.6960 128° Southeast 240 276 15,700 469 Climbing FlightAware ADS-B
Tue 11:26:26 AM -21.5600 -48.6660 128° Southeast 241 277 15,900 441 Climbing FlightAware ADS-B
Tue 11:27:02 AM -21.5840 -48.6320 127° Southeast 242 278 16,200 450 Climbing FlightAware ADS-B
Tue 11:27:46 AM -21.6150 -48.5890 128° Southeast 244 281 16,500 395 Climbing FlightAware ADS-B
Tue 11:28:18 AM -21.6370 -48.5580 127° Southeast 246 283 16,700 455 Climbing FlightAware ADS-B
Tue 11:28:52 AM -21.6600 -48.5240 126° Southeast 246 283 17,000 265 Climbing FlightAware ADS-B
Tue 11:29:26 AM -21.6850 -48.4900 128° Southeast 254 292 17,000  Level FlightAware ADS-B
Tue 11:30:36 AM -21.7370 -48.4170 127° Southeast 272 313 17,000  Level FlightAware ADS-B
Tue 11:31:20 AM -21.7710 -48.3690 127° Southeast 279 321 17,000  Level FlightAware ADS-B
Tue 11:31:48 AM -21.7930 -48.3380 127° Southeast 282 325 17,000  Level FlightAware ADS-B
Tue 11:32:40 AM -21.8340 -48.2800 127° Southeast 286 329 17,000  Level FlightAware ADS-B
Tue 11:33:08 AM -21.8580 -48.2470 128° Southeast 287 330 17,000  Level FlightAware ADS-B
Tue 11:33:45 AM -21.8860 -48.2060 126° Southeast 286 329 17,000  Level FlightAware ADS-B
Tue 11:34:36 AM -21.9280 -48.1480 128° Southeast 284 327 17,000  Level FlightAware ADS-B
Tue 11:35:16 AM -21.9600 -48.1020 127° Southeast 285 328 17,000  Level FlightAware ADS-B
Tue 11:35:52 AM -21.9890 -48.0610 127° Southeast 285 328 17,000  Level FlightAware ADS-B
Tue 11:36:28 AM -22.0180 -48.0200 127° Southeast 284 327 17,000  Level FlightAware ADS-B
Tue 11:37:06 AM -22.0480 -47.9770 127° Southeast 284 327 17,000  Level FlightAware ADS-B
Tue 11:37:58 AM -22.0900 -47.9200 128° Southeast 281 323 17,000  Level FlightAware ADS-B
Tue 11:38:36 AM -22.1310 -47.8880 144° Southeast 280 322 17,000  Level FlightAware ADS-B
Tue 11:39:14 AM -22.1710 -47.8580 145° Southeast 280 322 17,000  Level FlightAware ADS-B
Tue 11:39:54 AM -22.2140 -47.8240 144° Southeast 278 320 17,000 -280 Level FlightAware ADS-B
Tue 11:41:01 AM -22.2830 -47.7700 144° Southeast 267 307 16,500 -660 Descending FlightAware ADS-B
Tue 11:41:34 AM -22.3160 -47.7450 145° Southeast 264 304 15,900 -1,125 Descending FlightAware ADS-B
Tue 11:42:05 AM -22.3470 -47.7210 144° Southeast 261 300 15,300 -831 Descending FlightAware ADS-B
Tue 11:42:39 AM -22.3800 -47.6940 143° Southeast 253 291 15,000 -387 Descending FlightAware ADS-B
Tue 11:43:07 AM -22.4020 -47.6780 146° Southeast 254 292 14,900 -441 Descending FlightAware ADS-B
Tue 11:43:47 AM -22.4380 -47.6490 143° Southeast 242 278 14,500 -759 Descending FlightAware ADS-B
Tue 11:44:26 AM -22.4730 -47.6230 146° Southeast 252 290 13,900 -1,014 Descending FlightAware ADS-B
Tue 11:44:58 AM -22.5060 -47.5960 143° Southeast 263 303 13,300 -831 Descending FlightAware ADS-B
Tue 11:45:31 AM -22.5330 -47.5750 144° Southeast 273 314 13,000 -254 Descending FlightAware ADS-B
Tue 11:46:09 AM -22.5770 -47.5410 144° Southeast 275 316 13,000  Level FlightAware ADS-B
Tue 11:46:50 AM -22.6190 -47.5080 144° Southeast 278 320 13,000  Level FlightAware ADS-B
Tue 11:47:47 AM -22.6810 -47.4590 144° Southeast 279 321 13,000  Level FlightAware ADS-B
Tue 11:48:40 AM -22.7380 -47.4150 145° Southeast 278 320 13,000 -67 Level FlightAware ADS-B
Tue 11:49:17 AM -22.7710 -47.3890 144° Southeast 284 327 12,900 -320 Descending FlightAware ADS-B
Tue 11:49:55 AM -22.8170 -47.3540 145° Southeast 286 329 12,600 -486 Descending FlightAware ADS-B
Tue 11:50:31 AM -22.8570 -47.3230 144° Southeast 290 334 12,300 -529 Descending FlightAware ADS-B
Tue 11:51:03 AM -22.8930 -47.2950 144° Southeast 293 337 12,000 -516 Descending FlightAware ADS-B
Tue 11:52:04 AM -22.9630 -47.2420 145° Southeast 302 348 11,500 -469 Descending FlightAware ADS-B
Tue 11:53:11 AM -23.0370 -47.1850 145° Southeast 294 338 11,000 -611 Descending FlightAware ADS-B
Tue 11:53:52 AM -23.0830 -47.1500 145° Southeast 299 344 10,400 -1,317 Descending FlightAware ADS-B
Tue 11:54:33 AM -23.1300 -47.1140 145° Southeast 304 350 9,200 -1,971 Descending FlightAware ADS-B
Tue 11:55:02 AM -23.1580 -47.0820 134° Southeast 284 327 8,100 -2,164 Descending FlightAware ADS-B
Tue 11:55:34 AM -23.1540 -47.0420 84° East 246 283 7,000 -1,704 Descending FlightAware ADS-B
Tue 11:56:23 AM -23.1130 -47.0100 36° Northeast 196 226 5,800 -1,317 Descending FlightAware ADS-B
Tue 11:56:56 AM -23.0870 -47.0240 334° Northwest 155 178 5,200 -1,077 Descending FlightAware ADS-B
Tue 11:57:41 AM -23.0690 -47.0480 309° West 152 175 4,400 -1,133 Descending FlightAware ADS-B
Tue 11:58:26 AM -23.0510 -47.0730 308° West 111 128 3,500 -1,029 Descending FlightAware ADS-B
Tue 11:58:51 AM -23.0440 -47.0840 305° West 116 133 3,200 -346 Descending FlightAware ADS-B
Tue 11:59:18 AM -23.0360 -47.0940 311° West 116 133 3,200  Level FlightAware ADS-B
Tue 12:02:00 PM -23.0082 -47.1347 307° West  Level Estimated
Tue 12:03:00 PM -23.0082 -47.1347 335° Northwest  Level Estimated
Tue 12:04:00 PM -23.0082 -47.1347 335° Northwest  Level Estimated
Tue 12:05:00 PM -23.0082 -47.1347 335° Northwest  Level Estimated
Tue 12:06:00 PM -23.0082 -47.1347 335° Northwest  Level Estimated
Tue 12:07:00 PM -23.0082 -47.1347 335° Northwest  Level Estimated
Tue 12:08:00 PM -23.0082 -47.1347 335° Northwest  Level Estimated
Tue 12:09:00 PM -23.0082 -47.1347 335° Northwest  Level Estimated
Tue 12:10:00 PM -23.0082 -47.1347 335° Northwest  Level Estimated
Tue 12:11:00 PM -23.0082 -47.1347 335° Northwest  Level Estimated
Tue 12:12:00 PM -23.0082 -47.1347 335° Northwest  Level Estimated
Tue 12:13:00 PM -23.0082 -47.1347 335° Northwest  Level Estimated
Tue 12:14:00 PM -23.0082 -47.1347 335° Northwest  Level Estimated
Tue 12:15:00 PM -23.0082 -47.1347 335° Northwest  Level Estimated
Tue 12:16:00 PM -23.0082 -47.1347 335° Northwest  Level Estimated
Tue 12:17:00 PM -23.0082 -47.1347 335° Northwest  Level Estimated
Tue 12:18:00 PM -23.0082 -47.1347 335° Northwest  Level Estimated
Tue 12:19:00 PM -23.0082 -47.1347 335° Northwest  Level Estimated
Tue 12:20:00 PM -23.0082 -47.1347 335° Northwest  Level Estimated
Tue 12:21:00 PM -23.0082 -47.1347 335° Northwest  Level Estimated
Tue 12:22:00 PM -23.0082 -47.1347 335° Northwest  Level Estimated
Tue 12:23:00 PM -23.0082 -47.1347 335° Northwest  Level Estimated
Tue 12:24:00 PM -23.0082 -47.1347 335° Northwest  Level Estimated

Login

Don't have an account? Register now (free) for customized features, flight alerts, and more!